Impacts TAF Board INFO
FOR SITUATIONAL AWARENESS. NOT TO BE USED FOR FLIGHT PLANNING PURPOSES.
IDs:

KMEM - Memphis Intl, TN, US

Issued at 1554 UTC 20 Jan 2018
Updated at 1706 UTC 20 Jan 2018
Potential Impact None Slight Moderate High
Time1702Z 20/18Z 20/19Z 20/20Z 20/21Z 20/22Z 20/23Z 21/00Z 21/01Z 21/02Z 21/03Z 21/04Z 21/05Z 21/06Z>>
Type OBS PRVL PRVL PRVL PRVL PRVL PRVL PRVL PRVL PRVL PRVL PRVL PRVL PRVL
VIS 10 >6 >6 >6 >6 >6 >6 >6 >6 >6 >6 >6 >6 >6
CIG 28 30 30 30 30 30 30 30 30 30 30 30 30 30
Cover BKN BKN BKN BKN BKN BKN BKN BKN BKN BKN BKN BKN BKN BKN
FltCat MVFR MVFR MVFR MVFR MVFR MVFR MVFR MVFR MVFR MVFR MVFR MVFR MVFR MVFR
WX -- VCSH VCSH VCSH VCSH VCSH VCSH VCSH VCSH VCSH VCSH VCSH VCSH VCSH
WDir 200 180 180 180 180 180 180 180 180 180 180 180 180 180
WSpd 10 8 8 8 8 8 8 8 8 8 8 8 8 8
WGst -- -- -- -- -- -- -- -- -- -- -- -- -- --

Raw TAF
KMEM 201554Z 2016/2118 20009KT P6SM BKN025
  FM201800 18008KT P6SM VCSH BKN030
  FM210700 18011KT P6SM OVC020


Raw METAR
KMEM 201702Z 20010KT 10SM BKN028 13/05 A3019 RMK AO2 T01330050 $
KMEM 201654Z 19008G17KT 10SM BKN030 13/04 A3019 RMK AO2 SLP223 T01280039 $
KMEM 201644Z 20008KT 10SM BKN030 13/03 A3019 RMK AO2 T01280033 $
KMEM 201609Z 20009G19KT 10SM SCT032 BKN070 BKN080 12/02 A3019 RMK AO2 T01170017 $
KMEM 201554Z 20011G20KT 10SM BKN029 12/01 A3019 RMK AO2 SLP224 T01170011 $
KMEM 201533Z 20009KT 10SM BKN029 11/M01 A3019 RMK AO2 T01061011 $
KMEM 201454Z 17007KT 10SM BKN031 09/M03 A3019 RMK AO2 SLP223 T00891028 53004 $

METAR Board
Radar Display
Forecast Discussion

FOR SITUATIONAL AWARENESS. NOT TO BE USED FOR FLIGHT PLANNING PURPOSES.